Time;durP1;ratioP1;P1;durP2;ratioP2;P2;SDS_P1;SDS_P2;PMS_P1;PMS_P2;Temp;Humidity;BMP_temperature;BMP_pressure;BME280_temperature;BME280_humidity;BME280_pressure;Samples;Min_cycle;Max_cycle;Signal;HPM_P1;HPM_P2
2022/06/13 00:01:14;;;;;;;1.80;1.15;;;;;;;;;;4970922;28;20030;-71
2022/06/13 00:03:40;;;;;;;1.58;1.40;;;;;;;;;;4965280;28;20157;-69
2022/06/13 00:06:05;;;;;;;1.20;1.10;;;;;;;;;;4969557;28;20110;-69
2022/06/13 00:08:31;;;;;;;1.33;1.15;;;;;;;;;;4958663;28;20418;-70
2022/06/13 00:10:56;;;;;;;1.70;1.40;;;;;;;;;;4965777;28;20027;-70
2022/06/13 00:13:22;;;;;;;1.90;1.17;;;;;;;;;;4968399;28;20019;-69
2022/06/13 00:15:47;;;;;;;1.70;1.30;;;;;;;;;;4970636;28;20038;-71
2022/06/13 00:18:12;;;;;;;3.60;1.30;;;;;;;;;;4969008;28;20023;-70
2022/06/13 00:20:38;;;;;;;1.20;1.10;;;;;;;;;;4970745;28;20027;-73
2022/06/13 00:23:03;;;;;;;1.92;1.10;;;;;;;;;;4970021;28;20030;-70
2022/06/13 00:25:28;;;;;;;3.97;1.40;;;;;;;;;;4971726;28;20033;-70
2022/06/13 00:27:54;;;;;;;2.88;1.40;;;;;;;;;;4969671;28;20023;-71
2022/06/13 00:30:19;;;;;;;1.45;1.13;;;;;;;;;;4971624;28;20044;-68
2022/06/13 00:32:45;;;;;;;1.67;1.58;;;;;;;;;;4971410;28;20046;-69
2022/06/13 00:35:10;;;;;;;2.13;1.40;;;;;;;;;;4972043;28;20101;-69
2022/06/13 00:37:35;;;;;;;1.40;1.20;;;;;;;;;;4969359;28;20018;-69
2022/06/13 00:40:01;;;;;;;1.75;1.65;;;;;;;;;;4968394;28;20026;-72
2022/06/13 00:42:26;;;;;;;1.70;1.35;;;;;;;;;;4966600;28;20027;-69
2022/06/13 00:45:06;;;;;;;3.63;1.60;;;;;;;;;;4962652;28;20034;-72
2022/06/13 00:47:32;;;;;;;3.17;1.42;;;;;;;;;;4969198;28;20378;-69
2022/06/13 00:49:58;;;;;;;2.10;1.60;;;;;;;;;;4957002;28;20030;-68
2022/06/13 00:52:27;;;;;;;3.50;1.35;;;;;;;;;;4970486;28;20023;-71
2022/06/13 00:54:53;;;;;;;2.95;1.35;;;;;;;;;;4972366;28;20039;-72
2022/06/13 00:57:20;;;;;;;3.35;1.77;;;;;;;;;;4967089;28;20047;-71
2022/06/13 00:59:47;;;;;;;1.67;1.48;;;;;;;;;;4968055;28;20078;-68
2022/06/13 01:02:12;;;;;;;2.55;1.92;;;;;;;;;;4970366;28;20022;-68
2022/06/13 01:04:39;;;;;;;3.35;1.77;;;;;;;;;;4971907;28;20036;-69
2022/06/13 01:07:05;;;;;;;1.58;1.48;;;;;;;;;;4973939;28;20034;-71
2022/06/13 01:12:17;;;;;;;1.45;1.35;;;;;;;;;;4969349;28;20370;-69
2022/06/13 01:14:55;;;;;;;2.83;1.40;;;;;;;;;;4970494;28;20031;-69
2022/06/13 01:17:35;;;;;;;4.68;1.55;;;;;;;;;;4973561;28;20089;-69
2022/06/13 01:20:00;;;;;;;1.67;1.20;;;;;;;;;;4970797;28;20450;-67
2022/06/13 01:22:55;;;;;;;1.73;1.30;;;;;;;;;;4971681;28;20034;-68
2022/06/13 01:25:39;;;;;;;1.20;1.15;;;;;;;;;;4970142;28;20471;-67
2022/06/13 01:28:08;;;;;;;3.58;1.58;;;;;;;;;;4955870;28;20035;-73
2022/06/13 01:30:51;;;;;;;1.80;1.70;;;;;;;;;;4971867;28;20034;-69
2022/06/13 01:33:20;;;;;;;3.47;1.63;;;;;;;;;;4970079;28;20054;-68
2022/06/13 01:36:17;;;;;;;1.60;1.50;;;;;;;;;;4973600;28;20051;-70
2022/06/13 01:38:58;;;;;;;2.78;1.23;;;;;;;;;;4935566;28;20385;-68
2022/06/13 01:41:31;;;;;;;6.45;1.60;;;;;;;;;;4975111;28;20045;-68
2022/06/13 01:43:59;;;;;;;1.50;1.40;;;;;;;;;;4973335;28;20066;-70
2022/06/13 01:46:36;;;;;;;1.70;1.60;;;;;;;;;;4973806;28;20480;-72
2022/06/13 01:49:01;;;;;;;1.90;1.70;;;;;;;;;;4969783;28;20167;-68
2022/06/13 01:52:05;;;;;;;1.50;1.40;;;;;;;;;;4976878;28;20054;-68
2022/06/13 01:54:36;;;;;;;5.85;1.30;;;;;;;;;;4926487;29;20102;-68
2022/06/13 01:57:02;;;;;;;1.90;1.70;;;;;;;;;;4927637;29;20062;-72
2022/06/13 01:59:33;;;;;;;1.50;1.40;;;;;;;;;;4947992;28;20050;-70
2022/06/13 02:02:18;;;;;;;2.28;1.33;;;;;;;;;;4970501;28;20026;-70
2022/06/13 02:04:47;;;;;;;5.32;1.73;;;;;;;;;;4971054;28;20469;-70
2022/06/13 02:07:16;;;;;;;1.52;1.20;;;;;;;;;;4968499;28;20027;-71
2022/06/13 02:09:53;;;;;;;1.75;1.38;;;;;;;;;;4970790;28;20027;-69
2022/06/13 02:12:19;;;;;;;1.52;1.42;;;;;;;;;;4968022;28;20179;-71
2022/06/13 02:14:47;;;;;;;1.77;1.30;;;;;;;;;;4970607;28;20076;-71
2022/06/13 02:17:14;;;;;;;2.90;1.40;;;;;;;;;;4972021;28;20125;-71
2022/06/13 02:19:45;;;;;;;3.17;1.23;;;;;;;;;;4964005;28;20038;-73
2022/06/13 02:22:18;;;;;;;2.97;1.60;;;;;;;;;;4969558;28;20041;-73
2022/06/13 02:24:47;;;;;;;1.67;1.58;;;;;;;;;;4970175;28;20159;-69
2022/06/13 02:27:13;;;;;;;2.13;1.57;;;;;;;;;;4970749;28;20037;-70
2022/06/13 02:29:45;;;;;;;1.90;1.67;;;;;;;;;;4973157;28;20053;-73
2022/06/13 02:32:13;;;;;;;2.05;1.50;;;;;;;;;;4971878;28;20041;-70
2022/06/13 02:34:45;;;;;;;1.98;1.60;;;;;;;;;;4971824;28;20022;-69
2022/06/13 02:37:14;;;;;;;3.17;1.73;;;;;;;;;;4967493;28;20031;-73
2022/06/13 02:39:52;;;;;;;1.40;1.30;;;;;;;;;;4970839;28;20019;-72
2022/06/13 02:42:20;;;;;;;1.75;1.40;;;;;;;;;;4968330;28;20034;-69
2022/06/13 02:45:06;;;;;;;2.10;1.27;;;;;;;;;;4971191;28;20022;-68
2022/06/13 02:47:47;;;;;;;3.42;1.60;;;;;;;;;;4970261;28;20018;-73
2022/06/13 02:50:19;;;;;;;2.17;1.33;;;;;;;;;;4972189;28;20038;-69
2022/06/13 02:52:49;;;;;;;4.45;1.83;;;;;;;;;;4972271;28;20081;-69
2022/06/13 02:55:15;;;;;;;2.80;1.50;;;;;;;;;;4966169;28;20026;-69
2022/06/13 02:57:46;;;;;;;2.55;1.60;;;;;;;;;;4971916;28;20133;-68
2022/06/13 03:00:15;;;;;;;3.47;1.40;;;;;;;;;;4953927;28;20053;-72
2022/06/13 03:02:46;;;;;;;1.83;1.60;;;;;;;;;;4969605;28;20093;-69
2022/06/13 03:05:26;;;;;;;3.22;1.40;;;;;;;;;;4965236;28;20026;-69
2022/06/13 03:08:14;;;;;;;3.25;1.58;;;;;;;;;;4962039;28;20068;-72
2022/06/13 03:10:48;;;;;;;3.58;1.30;;;;;;;;;;4946896;28;20378;-69
2022/06/13 03:13:39;;;;;;;4.55;1.23;;;;;;;;;;4970477;28;20450;-67
2022/06/13 03:16:11;;;;;;;1.63;1.52;;;;;;;;;;4972448;28;20394;-70
2022/06/13 03:18:43;;;;;;;1.70;1.30;;;;;;;;;;4968829;28;20030;-71
2022/06/13 03:21:11;;;;;;;2.00;1.40;;;;;;;;;;4972888;28;20037;-68
2022/06/13 03:23:47;;;;;;;1.98;1.52;;;;;;;;;;4969382;28;20027;-69
2022/06/13 03:26:16;;;;;;;2.10;1.30;;;;;;;;;;4970385;28;20023;-68
2022/06/13 03:28:47;;;;;;;2.63;1.40;;;;;;;;;;4972371;28;21143;-68
2022/06/13 03:31:18;;;;;;;1.30;1.10;;;;;;;;;;4963182;28;20023;-69
2022/06/13 03:33:44;;;;;;;1.25;1.15;;;;;;;;;;4962982;28;20030;-68
2022/06/13 03:36:13;;;;;;;1.52;1.40;;;;;;;;;;4958353;28;20034;-68
2022/06/13 03:38:40;;;;;;;1.60;1.50;;;;;;;;;;4972211;28;20040;-68
2022/06/13 03:41:07;;;;;;;1.88;1.55;;;;;;;;;;4966537;28;20354;-70
2022/06/13 03:43:51;;;;;;;2.28;1.75;;;;;;;;;;4973953;28;20499;-69
2022/06/13 03:46:30;;;;;;;2.05;1.77;;;;;;;;;;4969770;28;20023;-68
2022/06/13 03:48:59;;;;;;;3.90;1.63;;;;;;;;;;4967243;28;20050;-68
2022/06/13 03:51:27;;;;;;;2.88;2.10;;;;;;;;;;4970362;28;20039;-69
2022/06/13 03:53:55;;;;;;;5.18;1.85;;;;;;;;;;4961691;28;20042;-67
2022/06/13 03:56:23;;;;;;;2.28;2.08;;;;;;;;;;4964853;28;20030;-69
2022/06/13 03:58:58;;;;;;;2.70;1.98;;;;;;;;;;4970636;28;20040;-69
2022/06/13 04:01:27;;;;;;;3.38;2.10;;;;;;;;;;4966655;28;20037;-69
2022/06/13 04:03:54;;;;;;;4.43;2.07;;;;;;;;;;4965282;28;20179;-68
2022/06/13 04:06:31;;;;;;;2.45;1.85;;;;;;;;;;4954348;28;20023;-70
2022/06/13 04:08:57;;;;;;;4.63;1.90;;;;;;;;;;4971682;28;20026;-68
2022/06/13 04:11:32;;;;;;;2.33;2.08;;;;;;;;;;4948620;28;20030;-71
2022/06/13 04:14:20;;;;;;;3.95;1.70;;;;;;;;;;4959551;28;20018;-71
2022/06/13 04:17:00;;;;;;;6.90;2.00;;;;;;;;;;4946543;28;20121;-69
2022/06/13 04:19:31;;;;;;;4.50;2.13;;;;;;;;;;4963608;28;20030;-70
2022/06/13 04:21:57;;;;;;;2.20;1.83;;;;;;;;;;4959356;28;20022;-69
2022/06/13 04:24:28;;;;;;;2.70;2.03;;;;;;;;;;4953339;28;20036;-69
2022/06/13 04:27:06;;;;;;;3.05;1.90;;;;;;;;;;4970203;28;20027;-70
2022/06/13 04:29:38;;;;;;;4.95;1.90;;;;;;;;;;4967834;28;20342;-69
2022/06/13 04:32:07;;;;;;;2.20;2.00;;;;;;;;;;4965679;28;20034;-67
2022/06/13 04:34:38;;;;;;;2.00;1.80;;;;;;;;;;4969724;28;20034;-67
2022/06/13 04:37:04;;;;;;;1.95;1.63;;;;;;;;;;4972204;28;20093;-68
2022/06/13 04:39:32;;;;;;;1.75;1.60;;;;;;;;;;4970662;28;20082;-67
2022/06/13 04:41:59;;;;;;;2.75;1.90;;;;;;;;;;4963655;28;20323;-68
2022/06/13 04:44:25;;;;;;;1.80;1.55;;;;;;;;;;4970275;28;20106;-70
2022/06/13 04:46:51;;;;;;;2.33;1.70;;;;;;;;;;4962502;28;20486;-69
2022/06/13 04:49:41;;;;;;;3.10;1.52;;;;;;;;;;4955348;28;20034;-72
2022/06/13 04:52:13;;;;;;;4.32;1.90;;;;;;;;;;4956244;28;20038;-70
2022/06/13 04:54:59;;;;;;;2.35;2.15;;;;;;;;;;4955685;28;20353;-71
2022/06/13 04:57:25;;;;;;;2.08;1.88;;;;;;;;;;4967136;28;20062;-72
2022/06/13 04:59:51;;;;;;;2.03;1.83;;;;;;;;;;4972318;28;20045;-70
2022/06/13 05:02:18;;;;;;;3.10;1.90;;;;;;;;;;4962158;28;20510;-70
2022/06/13 05:04:44;;;;;;;3.15;1.73;;;;;;;;;;4974498;28;20022;-72
2022/06/13 05:07:13;;;;;;;2.28;1.90;;;;;;;;;;4958667;28;20086;-69
2022/06/13 05:09:41;;;;;;;2.13;1.92;;;;;;;;;;4970682;28;20442;-67
2022/06/13 05:12:19;;;;;;;2.00;1.60;;;;;;;;;;4972353;28;20026;-71
2022/06/13 05:15:04;;;;;;;3.05;1.95;;;;;;;;;;4971715;28;20035;-68
2022/06/13 05:17:33;;;;;;;2.45;1.50;;;;;;;;;;4962817;28;20102;-66
2022/06/13 05:20:03;;;;;;;2.10;1.90;;;;;;;;;;4969276;28;20044;-69
2022/06/13 05:22:47;;;;;;;2.63;1.80;;;;;;;;;;4969377;28;20030;-70
2022/06/13 05:25:31;;;;;;;2.63;1.52;;;;;;;;;;4965321;28;20113;-68
2022/06/13 05:27:56;;;;;;;3.08;1.80;;;;;;;;;;4955652;28;20447;-71
2022/06/13 05:30:22;;;;;;;2.50;1.77;;;;;;;;;;4961444;28;20049;-69
2022/06/13 05:32:47;;;;;;;1.80;1.67;;;;;;;;;;4967435;28;20695;-71
2022/06/13 05:35:19;;;;;;;1.73;1.40;;;;;;;;;;4969384;28;20025;-69
2022/06/13 05:37:44;;;;;;;4.05;2.10;;;;;;;;;;4969864;28;20018;-70
2022/06/13 05:40:14;;;;;;;2.33;1.63;;;;;;;;;;4973666;28;20434;-72
2022/06/13 05:42:39;;;;;;;1.60;1.48;;;;;;;;;;4964692;28;20081;-72
2022/06/13 05:45:05;;;;;;;1.75;1.65;;;;;;;;;;4966769;28;20018;-71
2022/06/13 05:47:30;;;;;;;2.35;1.50;;;;;;;;;;4963027;28;20027;-71
2022/06/13 05:49:55;;;;;;;1.63;1.52;;;;;;;;;;4967947;28;20038;-68
2022/06/13 05:52:21;;;;;;;1.70;1.60;;;;;;;;;;4971301;28;20662;-71
2022/06/13 05:54:46;;;;;;;2.95;1.80;;;;;;;;;;4971812;28;20036;-69
2022/06/13 05:57:11;;;;;;;1.58;1.48;;;;;;;;;;4964080;28;20054;-69
2022/06/13 05:59:37;;;;;;;1.98;1.73;;;;;;;;;;4962350;28;20031;-69
2022/06/13 06:02:02;;;;;;;1.83;1.73;;;;;;;;;;4972760;28;20026;-69
2022/06/13 06:04:28;;;;;;;2.45;1.70;;;;;;;;;;4971667;28;20034;-70
2022/06/13 06:06:53;;;;;;;2.00;1.50;;;;;;;;;;4970149;28;20034;-68
2022/06/13 06:09:18;;;;;;;2.13;1.70;;;;;;;;;;4968743;28;20035;-70
2022/06/13 06:11:44;;;;;;;2.75;2.00;;;;;;;;;;4971225;28;20031;-71
2022/06/13 06:14:09;;;;;;;2.08;1.88;;;;;;;;;;4970932;28;20392;-69
2022/06/13 06:16:34;;;;;;;4.22;2.00;;;;;;;;;;4972565;28;20030;-71
2022/06/13 06:19:00;;;;;;;2.10;2.00;;;;;;;;;;4973248;28;20030;-70
2022/06/13 06:21:25;;;;;;;1.90;1.80;;;;;;;;;;4968164;28;20027;-71
2022/06/13 06:23:51;;;;;;;2.35;2.15;;;;;;;;;;4973756;28;20023;-70
2022/06/13 06:26:18;;;;;;;4.18;2.28;;;;;;;;;;4972073;28;20093;-68
2022/06/13 06:28:43;;;;;;;2.00;1.90;;;;;;;;;;4972747;28;20042;-70
2022/06/13 06:31:10;;;;;;;2.40;2.20;;;;;;;;;;4971054;28;20026;-71
2022/06/13 06:33:35;;;;;;;2.40;2.20;;;;;;;;;;4967994;28;20501;-69
2022/06/13 06:36:01;;;;;;;3.05;2.75;;;;;;;;;;4973591;28;20113;-70
2022/06/13 06:38:27;;;;;;;4.57;2.58;;;;;;;;;;4973363;28;20038;-69
2022/06/13 06:40:53;;;;;;;3.67;2.50;;;;;;;;;;4966332;28;20467;-70
2022/06/13 06:43:18;;;;;;;6.45;2.60;;;;;;;;;;4973236;28;20022;-70
2022/06/13 06:45:44;;;;;;;3.05;2.75;;;;;;;;;;4973043;28;20368;-72
2022/06/13 06:48:17;;;;;;;4.15;2.92;;;;;;;;;;4969068;28;20070;-72
2022/06/13 06:50:44;;;;;;;3.47;2.75;;;;;;;;;;4968096;28;20039;-70
2022/06/13 06:53:10;;;;;;;3.53;3.22;;;;;;;;;;4968245;28;20018;-71
2022/06/13 07:01:06;;;;;;;3.33;3.03;;;;;;;;;;4973856;28;20041;-70
2022/06/13 07:03:32;;;;;;;4.13;3.72;;;;;;;;;;4969709;28;20451;-69
2022/06/13 07:05:57;;;;;;;4.70;3.38;;;;;;;;;;4971321;28;20042;-71
2022/06/13 07:08:22;;;;;;;4.70;4.30;;;;;;;;;;4972607;28;20042;-70
2022/06/13 07:10:49;;;;;;;5.28;4.78;;;;;;;;;;4968839;28;20027;-71
2022/06/13 07:13:15;;;;;;;6.65;4.50;;;;;;;;;;4973338;28;20462;-71
2022/06/13 07:15:41;;;;;;;8.18;5.78;;;;;;;;;;4969263;28;20052;-71
2022/06/13 07:18:07;;;;;;;6.10;4.57;;;;;;;;;;4971885;28;20446;-70
2022/06/13 07:20:32;;;;;;;6.30;4.53;;;;;;;;;;4972129;28;20026;-69
2022/06/13 07:22:58;;;;;;;4.50;4.10;;;;;;;;;;4968516;28;20026;-70
2022/06/13 07:25:26;;;;;;;5.15;4.63;;;;;;;;;;4964194;28;20026;-69
2022/06/13 07:27:51;;;;;;;5.18;4.68;;;;;;;;;;4962113;28;20019;-69
2022/06/13 07:30:18;;;;;;;5.28;4.43;;;;;;;;;;4972290;28;20030;-73
2022/06/13 07:32:44;;;;;;;5.88;4.32;;;;;;;;;;4972671;28;20030;-70
2022/06/13 07:35:11;;;;;;;4.95;4.45;;;;;;;;;;4967014;28;20050;-71
2022/06/13 07:40:21;;;;;;;4.65;3.85;;;;;;;;;;4968717;28;20441;-72
2022/06/13 07:42:50;;;;;;;4.43;3.92;;;;;;;;;;4966796;28;20026;-70
2022/06/13 07:45:17;;;;;;;5.60;4.13;;;;;;;;;;4970321;28;20039;-70
2022/06/13 07:47:43;;;;;;;4.40;3.97;;;;;;;;;;4971146;28;20058;-69
2022/06/13 07:50:11;;;;;;;4.25;3.85;;;;;;;;;;4971334;28;20145;-70
2022/06/13 07:52:36;;;;;;;4.30;3.95;;;;;;;;;;4967812;28;20022;-70
2022/06/13 07:55:01;;;;;;;4.50;4.10;;;;;;;;;;4969191;28;20501;-72
2022/06/13 07:57:27;;;;;;;4.53;4.03;;;;;;;;;;4968426;28;20534;-71
2022/06/13 07:59:52;;;;;;;4.50;4.03;;;;;;;;;;4970795;28;20038;-70
2022/06/13 08:02:19;;;;;;;5.32;4.13;;;;;;;;;;4970397;28;20074;-71
2022/06/13 08:04:44;;;;;;;4.15;3.75;;;;;;;;;;4972363;28;20046;-70
2022/06/13 08:07:10;;;;;;;4.47;4.07;;;;;;;;;;4969666;28;20030;-69
2022/06/13 08:09:36;;;;;;;3.80;3.50;;;;;;;;;;4968751;28;20043;-71
2022/06/13 08:12:01;;;;;;;3.90;3.60;;;;;;;;;;4972821;28;20034;-73
2022/06/13 08:14:27;;;;;;;5.82;3.70;;;;;;;;;;4968173;28;20035;-70
2022/06/13 08:16:53;;;;;;;4.63;3.72;;;;;;;;;;4974882;28;20030;-70
2022/06/13 08:19:18;;;;;;;3.97;3.63;;;;;;;;;;4969310;28;20525;-70
2022/06/13 08:21:44;;;;;;;3.30;3.00;;;;;;;;;;4971106;28;20030;-70
2022/06/13 08:24:09;;;;;;;3.60;3.30;;;;;;;;;;4962929;28;20027;-68
2022/06/13 08:26:34;;;;;;;3.83;3.47;;;;;;;;;;4968495;28;20027;-72
2022/06/13 08:29:00;;;;;;;3.63;2.95;;;;;;;;;;4970006;28;20030;-69
2022/06/13 08:31:25;;;;;;;3.53;3.20;;;;;;;;;;4967387;28;20038;-72
2022/06/13 08:33:51;;;;;;;4.47;2.70;;;;;;;;;;4966861;28;20037;-70
2022/06/13 08:36:16;;;;;;;3.33;3.03;;;;;;;;;;4970430;28;20042;-69
2022/06/13 08:38:42;;;;;;;3.00;2.60;;;;;;;;;;4969742;28;20043;-69
2022/06/13 08:41:14;;;;;;;4.05;2.90;;;;;;;;;;4969581;28;20446;-70
2022/06/13 08:44:04;;;;;;;3.38;3.05;;;;;;;;;;4972312;28;20431;-69
2022/06/13 08:46:47;;;;;;;3.60;3.03;;;;;;;;;;4970044;28;20026;-70
2022/06/13 08:49:39;;;;;;;3.30;3.00;;;;;;;;;;4973061;28;20039;-74
2022/06/13 08:52:23;;;;;;;3.20;2.88;;;;;;;;;;4963340;28;20063;-72
2022/06/13 08:55:14;;;;;;;3.08;2.78;;;;;;;;;;4970405;28;20027;-69
2022/06/13 08:57:45;;;;;;;3.60;2.72;;;;;;;;;;4963408;28;20497;-69
2022/06/13 09:00:30;;;;;;;3.28;2.97;;;;;;;;;;4967892;28;20399;-70
2022/06/13 09:03:02;;;;;;;7.65;3.80;;;;;;;;;;4965535;28;20034;-70
2022/06/13 09:05:33;;;;;;;7.25;3.45;;;;;;;;;;4968681;28;20038;-70
2022/06/13 09:08:07;;;;;;;3.42;3.08;;;;;;;;;;4967198;28;20685;-70
2022/06/13 09:10:51;;;;;;;2.95;2.75;;;;;;;;;;4968119;28;20030;-70
2022/06/13 09:13:36;;;;;;;3.63;2.88;;;;;;;;;;4969212;28;20027;-70
2022/06/13 09:16:13;;;;;;;2.72;2.53;;;;;;;;;;4966920;28;20916;-71
2022/06/13 09:18:48;;;;;;;2.70;2.50;;;;;;;;;;4968158;28;20027;-69
2022/06/13 09:21:14;;;;;;;2.70;2.50;;;;;;;;;;4969543;28;20027;-70
2022/06/13 09:23:44;;;;;;;4.15;2.55;;;;;;;;;;4972361;28;20129;-69
2022/06/13 09:26:09;;;;;;;2.38;2.28;;;;;;;;;;4962300;28;20027;-70
2022/06/13 09:28:39;;;;;;;2.50;2.30;;;;;;;;;;4970755;28;20038;-69
2022/06/13 09:31:11;;;;;;;2.25;2.05;;;;;;;;;;4972175;28;20069;-74
2022/06/13 09:33:43;;;;;;;2.50;2.30;;;;;;;;;;4972352;28;20464;-69
2022/06/13 09:36:21;;;;;;;3.33;2.97;;;;;;;;;;4972645;28;20026;-70
2022/06/13 09:38:58;;;;;;;3.53;2.77;;;;;;;;;;4975773;28;20019;-72
2022/06/13 09:41:42;;;;;;;3.60;2.70;;;;;;;;;;4974343;28;20404;-70
2022/06/13 09:44:19;;;;;;;3.47;2.50;;;;;;;;;;4973075;28;20034;-71
2022/06/13 09:46:53;;;;;;;2.78;2.40;;;;;;;;;;4974963;28;20461;-72
2022/06/13 09:49:22;;;;;;;2.05;1.95;;;;;;;;;;4973697;28;20418;-69
2022/06/13 09:51:52;;;;;;;2.22;2.03;;;;;;;;;;4970462;28;20022;-69
2022/06/13 09:54:35;;;;;;;2.10;2.00;;;;;;;;;;4973105;28;20469;-72
2022/06/13 10:10:03;;;;;;;3.35;2.28;;;;;;;;;;5113377;27;20393;-70
2022/06/13 10:12:29;;;;;;;4.30;2.20;;;;;;;;;;5110515;28;20071;-68
2022/06/13 10:15:06;;;;;;;2.58;2.38;;;;;;;;;;5110330;28;20116;-69
2022/06/13 10:17:31;;;;;;;2.17;1.92;;;;;;;;;;5107957;28;20027;-70
2022/06/13 10:20:16;;;;;;;2.97;2.30;;;;;;;;;;5110492;28;20046;-70
2022/06/13 10:22:46;;;;;;;4.03;2.00;;;;;;;;;;5107784;28;20048;-70
2022/06/13 10:25:20;;;;;;;2.00;1.90;;;;;;;;;;5110519;28;20055;-69
2022/06/13 10:27:52;;;;;;;2.70;2.17;;;;;;;;;;5109952;28;20023;-71
2022/06/13 10:30:19;;;;;;;2.20;2.10;;;;;;;;;;5110292;28;20023;-70
2022/06/13 10:32:51;;;;;;;2.35;2.15;;;;;;;;;;5110344;28;20027;-72
2022/06/13 10:35:16;;;;;;;3.13;2.15;;;;;;;;;;5108276;28;20093;-71
2022/06/13 10:37:57;;;;;;;2.30;2.10;;;;;;;;;;5109865;28;20405;-71
2022/06/13 10:40:24;;;;;;;2.25;2.05;;;;;;;;;;5110135;28;20117;-70
2022/06/13 10:42:50;;;;;;;2.40;2.00;;;;;;;;;;5109658;28;20108;-71
2022/06/13 10:45:16;;;;;;;3.17;2.17;;;;;;;;;;5109865;28;20454;-71
2022/06/13 10:47:53;;;;;;;2.22;1.80;;;;;;;;;;5107658;28;20409;-68
2022/06/13 10:50:28;;;;;;;2.25;2.10;;;;;;;;;;5108579;28;20023;-71
2022/06/13 10:52:58;;;;;;;3.58;2.40;;;;;;;;;;5107258;28;20052;-72
2022/06/13 10:55:25;;;;;;;3.65;2.08;;;;;;;;;;5109873;28;20023;-70
2022/06/13 10:58:00;;;;;;;2.22;2.03;;;;;;;;;;5109580;28;20026;-71
2022/06/13 11:00:26;;;;;;;2.20;1.75;;;;;;;;;;5094818;28;20032;-70
2022/06/13 11:02:52;;;;;;;2.22;2.03;;;;;;;;;;5090973;28;20024;-70
2022/06/13 11:05:25;;;;;;;1.80;1.70;;;;;;;;;;5088872;28;20102;-71
2022/06/13 11:07:58;;;;;;;2.22;2.05;;;;;;;;;;5091116;28;20044;-71
2022/06/13 11:10:29;;;;;;;5.75;2.08;;;;;;;;;;5077923;28;20421;-72
2022/06/13 11:12:56;;;;;;;3.30;2.13;;;;;;;;;;5075483;28;20045;-71
2022/06/13 11:23:47;;;;;;;2.63;2.40;;;;;;;;;;5078283;28;20125;-72
2022/06/13 11:28:58;;;;;;;2.25;2.05;;;;;;;;;;5075596;28;20078;-73
2022/06/13 11:31:26;;;;;;;1.70;1.58;;;;;;;;;;5075201;28;20031;-70
2022/06/13 11:33:53;;;;;;;1.80;1.50;;;;;;;;;;5076074;28;20019;-73
2022/06/13 11:36:26;;;;;;;2.67;1.65;;;;;;;;;;5065788;28;20078;-74
2022/06/13 11:38:51;;;;;;;2.38;2.15;;;;;;;;;;5073880;28;20028;-71
2022/06/13 11:41:24;;;;;;;2.03;1.80;;;;;;;;;;5075431;28;20036;-71
2022/06/13 11:43:52;;;;;;;2.40;2.20;;;;;;;;;;5071633;28;20012;-71
2022/06/13 11:46:23;;;;;;;1.85;1.75;;;;;;;;;;5077237;28;20024;-70
2022/06/13 11:48:49;;;;;;;3.67;2.22;;;;;;;;;;5074899;28;20036;-73
2022/06/13 11:51:37;;;;;;;9.75;3.50;;;;;;;;;;5076309;28;20096;-70
2022/06/13 11:54:03;;;;;;;4.17;3.00;;;;;;;;;;5072484;28;20031;-71
2022/06/13 11:56:30;;;;;;;5.72;3.30;;;;;;;;;;5074311;28;20012;-72
2022/06/13 11:58:57;;;;;;;5.10;2.88;;;;;;;;;;5075737;28;20040;-75
2022/06/13 12:01:34;;;;;;;6.05;2.88;;;;;;;;;;5076063;28;20039;-72
2022/06/13 12:04:11;;;;;;;2.67;2.45;;;;;;;;;;5078265;28;20111;-71
2022/06/13 12:06:57;;;;;;;2.58;2.22;;;;;;;;;;5076934;28;20028;-70
2022/06/13 12:09:31;;;;;;;5.20;2.70;;;;;;;;;;5073517;28;20052;-75
2022/06/13 12:12:00;;;;;;;7.65;2.85;;;;;;;;;;5076919;28;20450;-70
2022/06/13 12:14:28;;;;;;;3.37;2.53;;;;;;;;;;5071578;28;20166;-74
2022/06/13 12:16:53;;;;;;;3.23;2.80;;;;;;;;;;5077834;28;20020;-70
2022/06/13 12:19:19;;;;;;;5.78;3.08;;;;;;;;;;5076551;28;20337;-70
2022/06/13 12:21:44;;;;;;;3.78;3.45;;;;;;;;;;5077027;28;20332;-73
2022/06/13 12:24:15;;;;;;;4.07;3.00;;;;;;;;;;5078424;28;20024;-68
2022/06/13 12:26:43;;;;;;;3.67;3.13;;;;;;;;;;5076654;28;20024;-72
2022/06/13 12:29:19;;;;;;;4.03;3.33;;;;;;;;;;5074345;28;20032;-71
2022/06/13 12:31:48;;;;;;;2.92;2.63;;;;;;;;;;5072695;28;20077;-71
2022/06/13 12:34:14;;;;;;;2.70;2.50;;;;;;;;;;5075206;28;20036;-70
2022/06/13 12:36:54;;;;;;;3.17;2.60;;;;;;;;;;5075516;28;20043;-68
2022/06/13 12:39:20;;;;;;;3.05;2.72;;;;;;;;;;5077414;28;20016;-69
2022/06/13 12:41:52;;;;;;;3.42;2.65;;;;;;;;;;5076249;28;23807;-75
2022/06/13 12:44:27;;;;;;;4.30;2.88;;;;;;;;;;5073661;28;20115;-71
2022/06/13 12:47:11;;;;;;;3.25;2.83;;;;;;;;;;5070603;28;20103;-72
2022/06/13 12:49:36;;;;;;;5.88;2.90;;;;;;;;;;5072006;28;20020;-72
2022/06/13 12:52:07;;;;;;;4.93;3.53;;;;;;;;;;5076995;28;20031;-72
2022/06/13 12:54:47;;;;;;;3.10;2.85;;;;;;;;;;5073182;28;20016;-73
2022/06/13 12:57:32;;;;;;;4.03;3.00;;;;;;;;;;5075394;28;20053;-70
2022/06/13 13:00:16;;;;;;;3.45;3.15;;;;;;;;;;5072766;28;20040;-69
2022/06/13 13:02:58;;;;;;;3.67;2.90;;;;;;;;;;5076314;28;20024;-76
2022/06/13 13:05:32;;;;;;;2.83;2.63;;;;;;;;;;5074195;28;20519;-71
2022/06/13 13:08:18;;;;;;;4.78;2.70;;;;;;;;;;5073479;28;20049;-69
2022/06/13 13:10:59;;;;;;;3.70;2.92;;;;;;;;;;5074575;28;20047;-73
2022/06/13 13:13:24;;;;;;;3.47;3.15;;;;;;;;;;5070104;28;20355;-69
2022/06/13 13:16:02;;;;;;;3.10;2.80;;;;;;;;;;5066347;28;20073;-74
2022/06/13 13:18:37;;;;;;;3.97;2.60;;;;;;;;;;5064260;28;20381;-70
2022/06/13 13:21:19;;;;;;;4.10;2.80;;;;;;;;;;5067764;28;20148;-68
2022/06/13 13:23:47;;;;;;;3.25;2.95;;;;;;;;;;5066877;28;20015;-69
2022/06/13 13:26:33;;;;;;;3.38;2.88;;;;;;;;;;5066743;28;20344;-69
2022/06/13 13:29:17;;;;;;;3.38;3.08;;;;;;;;;;5026993;28;20035;-69
2022/06/13 13:31:45;;;;;;;3.90;3.45;;;;;;;;;;5066386;28;20927;-73
2022/06/13 13:34:29;;;;;;;3.85;3.20;;;;;;;;;;5066273;28;20127;-69
2022/06/13 13:37:19;;;;;;;3.15;2.85;;;;;;;;;;5073315;28;20023;-70
2022/06/13 13:39:51;;;;;;;3.47;3.17;;;;;;;;;;5068476;28;20068;-68
2022/06/13 13:42:25;;;;;;;4.95;3.28;;;;;;;;;;5085607;28;20062;-72
2022/06/13 13:45:04;;;;;;;3.53;3.22;;;;;;;;;;5031771;28;20514;-75
2022/06/13 13:47:34;;;;;;;2.92;2.70;;;;;;;;;;5020759;28;20041;-69
2022/06/13 13:50:08;;;;;;;4.60;3.15;;;;;;;;;;5019933;28;20025;-71
2022/06/13 13:52:37;;;;;;;4.07;3.00;;;;;;;;;;5020791;28;20226;-71
2022/06/13 13:55:02;;;;;;;;;;;;;;;;;;5022147;28;20025;-74
2022/06/13 13:57:41;;;;;;;3.07;2.77;;;;;;;;;;5020721;28;19928;-73
2022/06/13 14:00:16;;;;;;;4.40;3.28;;;;;;;;;;5020507;28;20052;-76
2022/06/13 14:02:52;;;;;;;5.63;3.13;;;;;;;;;;5006785;28;20037;-71
2022/06/13 14:05:33;;;;;;;3.28;2.97;;;;;;;;;;5008217;28;20340;-71
2022/06/13 14:08:09;;;;;;;5.25;3.65;;;;;;;;;;5008454;28;20053;-71
2022/06/13 14:10:39;;;;;;;3.03;2.72;;;;;;;;;;5009769;28;20021;-70
2022/06/13 14:13:09;;;;;;;3.45;2.90;;;;;;;;;;5008896;28;20866;-72
2022/06/13 14:15:50;;;;;;;4.63;3.10;;;;;;;;;;5007888;28;20618;-73
2022/06/13 14:18:43;;;;;;;4.20;3.00;;;;;;;;;;5008808;28;20546;-69
2022/06/13 14:21:12;;;;;;;2.53;2.20;;;;;;;;;;5010108;28;20360;-68
2022/06/13 14:23:42;;;;;;;2.22;2.03;;;;;;;;;;5004123;28;20029;-71
2022/06/13 14:26:17;;;;;;;2.13;1.92;;;;;;;;;;5020160;28;20067;-67
2022/06/13 14:28:53;;;;;;;2.78;1.95;;;;;;;;;;5020115;28;20036;-70
2022/06/13 14:31:19;;;;;;;2.88;2.30;;;;;;;;;;5015698;28;20175;-69
2022/06/13 14:36:51;;;;;;;3.00;2.25;;;;;;;;;;5015746;28;20113;-69
2022/06/13 14:39:33;;;;;;;2.08;1.98;;;;;;;;;;5010881;28;20077;-69
2022/06/13 14:42:08;;;;;;;3.67;2.10;;;;;;;;;;5011778;28;20338;-68
2022/06/13 14:44:42;;;;;;;3.78;2.42;;;;;;;;;;5022390;28;20053;-69
2022/06/13 14:47:19;;;;;;;2.90;2.65;;;;;;;;;;5023664;28;20099;-73
2022/06/13 14:49:47;;;;;;;3.10;2.25;;;;;;;;;;5019563;28;20044;-69
2022/06/13 14:52:32;;;;;;;3.63;2.30;;;;;;;;;;5019987;28;20063;-69
2022/06/13 14:55:04;;;;;;;2.72;2.53;;;;;;;;;;5023485;28;20037;-69
2022/06/13 14:57:38;;;;;;;3.63;2.55;;;;;;;;;;5023634;28;20069;-71
2022/06/13 15:00:03;;;;;;;2.63;2.42;;;;;;;;;;5017145;28;20116;-70
2022/06/13 15:02:29;;;;;;;3.25;2.67;;;;;;;;;;5023722;28;21254;-70
2022/06/13 15:05:08;;;;;;;2.78;2.58;;;;;;;;;;5024689;28;20459;-69
2022/06/13 15:07:48;;;;;;;6.28;2.50;;;;;;;;;;5018165;28;20037;-70
2022/06/13 15:10:18;;;;;;;2.85;2.65;;;;;;;;;;5017916;28;20029;-70
2022/06/13 15:12:44;;;;;;;2.78;2.40;;;;;;;;;;5021813;28;20098;-70
2022/06/13 15:15:20;;;;;;;2.30;2.10;;;;;;;;;;5018943;28;20468;-69
2022/06/13 15:17:45;;;;;;;1.90;1.80;;;;;;;;;;5010796;28;20067;-69
2022/06/13 15:20:17;;;;;;;3.05;2.05;;;;;;;;;;5007383;28;20025;-74
2022/06/13 15:22:46;;;;;;;2.20;2.00;;;;;;;;;;5014581;28;20093;-69
2022/06/13 15:25:12;;;;;;;2.17;1.98;;;;;;;;;;5011908;28;20064;-69
2022/06/13 15:27:57;;;;;;;1.75;1.65;;;;;;;;;;5016844;28;20083;-71
2022/06/13 15:30:30;;;;;;;2.47;1.80;;;;;;;;;;5022634;28;20021;-70
2022/06/13 15:33:08;;;;;;;1.92;1.77;;;;;;;;;;5013365;28;20047;-71
2022/06/13 15:35:38;;;;;;;1.80;1.70;;;;;;;;;;5022089;28;20037;-73
2022/06/13 15:38:04;;;;;;;1.73;1.63;;;;;;;;;;5020742;28;20032;-72
2022/06/13 15:40:34;;;;;;;1.70;1.60;;;;;;;;;;5014643;28;20025;-70
2022/06/13 15:43:00;;;;;;;2.20;1.80;;;;;;;;;;5012193;28;20079;-70
2022/06/13 15:45:27;;;;;;;1.60;1.50;;;;;;;;;;5012868;28;20018;-72